sensor_id;sensor_type;location;lat;lon;timestamp;temperature;humidity
22908;DHT22;11620;50.050;8.690;2023-10-09T00:02:29;13.40;99.90
22908;DHT22;11620;50.050;8.690;2023-10-09T00:05:15;13.50;99.90
22908;DHT22;11620;50.050;8.690;2023-10-09T00:08:10;13.40;99.90
22908;DHT22;11620;50.050;8.690;2023-10-09T00:10:59;13.50;99.90
22908;DHT22;11620;50.050;8.690;2023-10-09T00:13:59;13.60;99.90
22908;DHT22;11620;50.050;8.690;2023-10-09T00:16:46;13.60;99.90
22908;DHT22;11620;50.050;8.690;2023-10-09T00:19:34;13.60;99.90
22908;DHT22;11620;50.050;8.690;2023-10-09T00:22:20;13.50;99.90
22908;DHT22;11620;50.050;8.690;2023-10-09T00:25:09;13.60;99.90
22908;DHT22;11620;50.050;8.690;2023-10-09T00:27:56;13.60;99.90
22908;DHT22;11620;50.050;8.690;2023-10-09T00:30:45;13.60;99.90
22908;DHT22;11620;50.050;8.690;2023-10-09T00:33:33;13.60;99.90
22908;DHT22;11620;50.050;8.690;2023-10-09T00:36:19;13.60;99.90
22908;DHT22;11620;50.050;8.690;2023-10-09T00:39:14;13.60;99.90
22908;DHT22;11620;50.050;8.690;2023-10-09T00:42:08;13.60;99.90
22908;DHT22;11620;50.050;8.690;2023-10-09T00:44:58;13.60;99.90
22908;DHT22;11620;50.050;8.690;2023-10-09T00:47:51;13.60;99.90
22908;DHT22;11620;50.050;8.690;2023-10-09T00:50:42;13.50;99.90
22908;DHT22;11620;50.050;8.690;2023-10-09T00:53:38;13.60;99.90
22908;DHT22;11620;50.050;8.690;2023-10-09T00:56:25;13.50;99.90
22908;DHT22;11620;50.050;8.690;2023-10-09T00:59:15;13.50;99.90
22908;DHT22;11620;50.050;8.690;2023-10-09T01:02:02;13.50;99.90
22908;DHT22;11620;50.050;8.690;2023-10-09T01:04:52;13.50;99.90
22908;DHT22;11620;50.050;8.690;2023-10-09T01:07:39;13.50;99.90
22908;DHT22;11620;50.050;8.690;2023-10-09T01:10:26;13.40;99.90
22908;DHT22;11620;50.050;8.690;2023-10-09T01:13:20;13.10;99.90
22908;DHT22;11620;50.050;8.690;2023-10-09T01:16:07;12.90;99.90
22908;DHT22;11620;50.050;8.690;2023-10-09T01:19:02;12.80;99.90
22908;DHT22;11620;50.050;8.690;2023-10-09T01:21:59;12.80;99.90
22908;DHT22;11620;50.050;8.690;2023-10-09T01:24:50;13.10;99.90
22908;DHT22;11620;50.050;8.690;2023-10-09T01:27:37;13.20;99.90
22908;DHT22;11620;50.050;8.690;2023-10-09T01:30:26;13.10;99.90
22908;DHT22;11620;50.050;8.690;2023-10-09T01:33:14;13.10;99.90
22908;DHT22;11620;50.050;8.690;2023-10-09T01:36:13;13.20;99.90
22908;DHT22;11620;50.050;8.690;2023-10-09T01:39:01;13.20;99.90
22908;DHT22;11620;50.050;8.690;2023-10-09T01:42:08;13.40;99.90
22908;DHT22;11620;50.050;8.690;2023-10-09T01:44:55;13.20;99.90
22908;DHT22;11620;50.050;8.690;2023-10-09T01:47:44;13.20;99.90
22908;DHT22;11620;50.050;8.690;2023-10-09T01:50:37;13.20;99.90
22908;DHT22;11620;50.050;8.690;2023-10-09T01:53:28;13.30;99.90
22908;DHT22;11620;50.050;8.690;2023-10-09T01:56:16;13.30;99.90
22908;DHT22;11620;50.050;8.690;2023-10-09T01:59:02;13.20;99.90
22908;DHT22;11620;50.050;8.690;2023-10-09T02:01:51;13.30;99.90
22908;DHT22;11620;50.050;8.690;2023-10-09T02:04:40;13.20;99.90
22908;DHT22;11620;50.050;8.690;2023-10-09T02:07:27;13.20;99.90
22908;DHT22;11620;50.050;8.690;2023-10-09T02:10:15;13.40;99.90
22908;DHT22;11620;50.050;8.690;2023-10-09T02:13:11;13.30;99.90
22908;DHT22;11620;50.050;8.690;2023-10-09T02:15:57;13.30;99.90
22908;DHT22;11620;50.050;8.690;2023-10-09T02:19:00;13.30;99.90
22908;DHT22;11620;50.050;8.690;2023-10-09T02:21:52;13.30;99.90
22908;DHT22;11620;50.050;8.690;2023-10-09T02:24:40;13.20;99.90
22908;DHT22;11620;50.050;8.690;2023-10-09T02:27:55;13.20;99.90
22908;DHT22;11620;50.050;8.690;2023-10-09T02:30:45;13.20;99.90
22908;DHT22;11620;50.050;8.690;2023-10-09T02:33:36;13.20;99.90
22908;DHT22;11620;50.050;8.690;2023-10-09T02:36:25;13.30;99.90
22908;DHT22;11620;50.050;8.690;2023-10-09T02:39:14;13.20;99.90
22908;DHT22;11620;50.050;8.690;2023-10-09T02:42:10;13.20;99.90
22908;DHT22;11620;50.050;8.690;2023-10-09T02:44:59;13.20;99.90
22908;DHT22;11620;50.050;8.690;2023-10-09T02:47:46;13.20;99.90
22908;DHT22;11620;50.050;8.690;2023-10-09T02:50:37;13.20;99.90
22908;DHT22;11620;50.050;8.690;2023-10-09T02:53:25;13.20;99.90
22908;DHT22;11620;50.050;8.690;2023-10-09T02:56:16;13.20;99.90
22908;DHT22;11620;50.050;8.690;2023-10-09T02:59:05;13.20;99.90
22908;DHT22;11620;50.050;8.690;2023-10-09T03:01:54;13.20;99.90
22908;DHT22;11620;50.050;8.690;2023-10-09T03:04:40;13.20;99.90
22908;DHT22;11620;50.050;8.690;2023-10-09T03:07:27;13.20;99.90
22908;DHT22;11620;50.050;8.690;2023-10-09T03:10:14;13.10;99.90
22908;DHT22;11620;50.050;8.690;2023-10-09T03:13:00;13.30;99.90
22908;DHT22;11620;50.050;8.690;2023-10-09T03:15:51;13.30;99.90
22908;DHT22;11620;50.050;8.690;2023-10-09T03:18:38;13.10;99.90
22908;DHT22;11620;50.050;8.690;2023-10-09T03:21:24;13.10;99.90
22908;DHT22;11620;50.050;8.690;2023-10-09T03:24:10;13.00;99.90
22908;DHT22;11620;50.050;8.690;2023-10-09T03:26:57;13.00;99.90
22908;DHT22;11620;50.050;8.690;2023-10-09T03:29:44;13.00;99.90
22908;DHT22;11620;50.050;8.690;2023-10-09T03:32:35;13.00;99.90
22908;DHT22;11620;50.050;8.690;2023-10-09T03:35:22;12.90;99.90
22908;DHT22;11620;50.050;8.690;2023-10-09T03:38:13;13.20;99.90
22908;DHT22;11620;50.050;8.690;2023-10-09T03:41:04;12.90;99.90
22908;DHT22;11620;50.050;8.690;2023-10-09T03:43:52;12.90;99.90
22908;DHT22;11620;50.050;8.690;2023-10-09T03:46:40;12.80;99.90
22908;DHT22;11620;50.050;8.690;2023-10-09T03:49:30;12.60;99.90
22908;DHT22;11620;50.050;8.690;2023-10-09T03:52:18;12.60;99.90
22908;DHT22;11620;50.050;8.690;2023-10-09T03:55:05;12.70;99.90
22908;DHT22;11620;50.050;8.690;2023-10-09T03:57:57;12.60;99.90
22908;DHT22;11620;50.050;8.690;2023-10-09T04:00:45;12.60;99.90
22908;DHT22;11620;50.050;8.690;2023-10-09T04:03:31;12.50;99.90
22908;DHT22;11620;50.050;8.690;2023-10-09T04:06:17;12.70;99.90
22908;DHT22;11620;50.050;8.690;2023-10-09T04:09:06;12.70;99.90
22908;DHT22;11620;50.050;8.690;2023-10-09T04:12:12;12.90;99.90
22908;DHT22;11620;50.050;8.690;2023-10-09T04:15:07;12.80;99.90
22908;DHT22;11620;50.050;8.690;2023-10-09T04:18:01;12.80;99.90
22908;DHT22;11620;50.050;8.690;2023-10-09T04:20:48;13.00;99.90
22908;DHT22;11620;50.050;8.690;2023-10-09T04:23:53;13.10;99.90
22908;DHT22;11620;50.050;8.690;2023-10-09T04:26:46;13.10;99.90
22908;DHT22;11620;50.050;8.690;2023-10-09T04:29:32;13.00;99.90
22908;DHT22;11620;50.050;8.690;2023-10-09T04:32:33;12.90;99.90
22908;DHT22;11620;50.050;8.690;2023-10-09T04:35:20;13.00;99.90
22908;DHT22;11620;50.050;8.690;2023-10-09T04:38:12;13.20;99.90
22908;DHT22;11620;50.050;8.690;2023-10-09T04:40:58;13.00;99.90
22908;DHT22;11620;50.050;8.690;2023-10-09T04:43:45;13.00;99.90
22908;DHT22;11620;50.050;8.690;2023-10-09T04:46:32;12.90;99.90
22908;DHT22;11620;50.050;8.690;2023-10-09T04:49:29;13.00;99.90
22908;DHT22;11620;50.050;8.690;2023-10-09T04:52:17;13.00;99.90
22908;DHT22;11620;50.050;8.690;2023-10-09T04:55:26;12.90;99.90
22908;DHT22;11620;50.050;8.690;2023-10-09T04:58:12;13.00;99.90
22908;DHT22;11620;50.050;8.690;2023-10-09T05:01:09;12.90;99.90
22908;DHT22;11620;50.050;8.690;2023-10-09T05:03:59;13.00;99.90
22908;DHT22;11620;50.050;8.690;2023-10-09T05:06:50;12.90;99.90
22908;DHT22;11620;50.050;8.690;2023-10-09T05:09:41;12.80;99.90
22908;DHT22;11620;50.050;8.690;2023-10-09T05:12:41;12.80;99.90
22908;DHT22;11620;50.050;8.690;2023-10-09T05:15:32;12.80;99.90
22908;DHT22;11620;50.050;8.690;2023-10-09T05:18:20;12.90;99.90
22908;DHT22;11620;50.050;8.690;2023-10-09T05:21:13;12.90;99.90
22908;DHT22;11620;50.050;8.690;2023-10-09T05:24:00;13.00;99.90
22908;DHT22;11620;50.050;8.690;2023-10-09T05:26:58;12.90;99.90
22908;DHT22;11620;50.050;8.690;2023-10-09T05:30:03;12.90;99.90
22908;DHT22;11620;50.050;8.690;2023-10-09T05:33:10;13.00;99.90
22908;DHT22;11620;50.050;8.690;2023-10-09T05:36:15;13.00;99.90
22908;DHT22;11620;50.050;8.690;2023-10-09T05:39:07;13.00;99.90
22908;DHT22;11620;50.050;8.690;2023-10-09T05:45:28;13.10;99.90
22908;DHT22;11620;50.050;8.690;2023-10-09T05:48:33;13.10;99.90
22908;DHT22;11620;50.050;8.690;2023-10-09T05:51:39;13.10;99.90
22908;DHT22;11620;50.050;8.690;2023-10-09T05:54:29;13.10;99.90
22908;DHT22;11620;50.050;8.690;2023-10-09T05:57:34;13.20;99.90
22908;DHT22;11620;50.050;8.690;2023-10-09T06:00:39;13.30;99.90
22908;DHT22;11620;50.050;8.690;2023-10-09T06:03:44;13.20;99.90
22908;DHT22;11620;50.050;8.690;2023-10-09T06:06:50;13.20;99.90
22908;DHT22;11620;50.050;8.690;2023-10-09T06:09:42;13.20;99.90
22908;DHT22;11620;50.050;8.690;2023-10-09T06:12:56;13.30;99.90
22908;DHT22;11620;50.050;8.690;2023-10-09T06:15:49;13.30;99.90
22908;DHT22;11620;50.050;8.690;2023-10-09T06:18:36;13.30;99.90
22908;DHT22;11620;50.050;8.690;2023-10-09T06:21:27;13.30;99.90
22908;DHT22;11620;50.050;8.690;2023-10-09T06:24:26;13.30;99.90
22908;DHT22;11620;50.050;8.690;2023-10-09T06:27:22;13.30;99.90
22908;DHT22;11620;50.050;8.690;2023-10-09T06:30:18;13.30;99.90
22908;DHT22;11620;50.050;8.690;2023-10-09T06:33:04;13.40;99.90
22908;DHT22;11620;50.050;8.690;2023-10-09T06:36:12;13.40;99.90
22908;DHT22;11620;50.050;8.690;2023-10-09T06:39:03;13.40;99.90
22908;DHT22;11620;50.050;8.690;2023-10-09T06:42:08;13.50;99.90
22908;DHT22;11620;50.050;8.690;2023-10-09T06:45:15;13.60;99.90
22908;DHT22;11620;50.050;8.690;2023-10-09T06:48:04;13.50;99.90
22908;DHT22;11620;50.050;8.690;2023-10-09T06:51:13;13.50;99.90
22908;DHT22;11620;50.050;8.690;2023-10-09T06:54:12;13.50;99.90
22908;DHT22;11620;50.050;8.690;2023-10-09T06:57:01;13.50;99.90
22908;DHT22;11620;50.050;8.690;2023-10-09T06:59:59;13.40;99.90
22908;DHT22;11620;50.050;8.690;2023-10-09T07:03:03;13.40;99.90
22908;DHT22;11620;50.050;8.690;2023-10-09T07:06:07;13.30;99.90
22908;DHT22;11620;50.050;8.690;2023-10-09T07:09:13;13.30;99.90
22908;DHT22;11620;50.050;8.690;2023-10-09T07:12:05;13.20;99.90
22908;DHT22;11620;50.050;8.690;2023-10-09T07:14:55;13.00;99.90
22908;DHT22;11620;50.050;8.690;2023-10-09T07:17:42;13.10;99.90
22908;DHT22;11620;50.050;8.690;2023-10-09T07:20:28;13.20;99.90
22908;DHT22;11620;50.050;8.690;2023-10-09T07:23:31;13.30;99.90
22908;DHT22;11620;50.050;8.690;2023-10-09T07:26:04;13.40;99.90
22908;DHT22;11620;50.050;8.690;2023-10-09T07:28:44;13.40;99.90
22908;DHT22;11620;50.050;8.690;2023-10-09T07:31:18;13.50;99.90
22908;DHT22;11620;50.050;8.690;2023-10-09T07:33:53;13.60;99.90
22908;DHT22;11620;50.050;8.690;2023-10-09T07:36:26;13.60;99.90
22908;DHT22;11620;50.050;8.690;2023-10-09T07:39:04;13.70;99.90
22908;DHT22;11620;50.050;8.690;2023-10-09T07:41:40;13.90;99.90
22908;DHT22;11620;50.050;8.690;2023-10-09T07:44:11;13.90;99.90
22908;DHT22;11620;50.050;8.690;2023-10-09T07:47:00;13.90;99.90
22908;DHT22;11620;50.050;8.690;2023-10-09T07:49:46;13.80;99.90
22908;DHT22;11620;50.050;8.690;2023-10-09T07:52:20;13.90;99.90
22908;DHT22;11620;50.050;8.690;2023-10-09T07:54:48;14.00;99.90
22908;DHT22;11620;50.050;8.690;2023-10-09T07:57:20;13.90;99.90
22908;DHT22;11620;50.050;8.690;2023-10-09T07:59:52;13.80;99.90
22908;DHT22;11620;50.050;8.690;2023-10-09T08:02:27;13.90;99.90
22908;DHT22;11620;50.050;8.690;2023-10-09T08:05:01;13.90;99.90
22908;DHT22;11620;50.050;8.690;2023-10-09T08:07:47;13.70;99.90
22908;DHT22;11620;50.050;8.690;2023-10-09T08:10:45;13.90;99.90
22908;DHT22;11620;50.050;8.690;2023-10-09T08:13:33;14.00;99.90
22908;DHT22;11620;50.050;8.690;2023-10-09T08:16:17;14.10;99.90
22908;DHT22;11620;50.050;8.690;2023-10-09T08:18:48;14.10;99.90
22908;DHT22;11620;50.050;8.690;2023-10-09T08:21:18;14.20;99.90
22908;DHT22;11620;50.050;8.690;2023-10-09T08:24:07;14.20;99.90
22908;DHT22;11620;50.050;8.690;2023-10-09T08:26:54;14.30;99.90
22908;DHT22;11620;50.050;8.690;2023-10-09T08:29:40;14.10;99.90
22908;DHT22;11620;50.050;8.690;2023-10-09T08:32:12;14.30;99.90
22908;DHT22;11620;50.050;8.690;2023-10-09T08:34:44;14.20;99.90
22908;DHT22;11620;50.050;8.690;2023-10-09T08:37:19;14.30;99.90
22908;DHT22;11620;50.050;8.690;2023-10-09T08:39:49;14.40;99.90
22908;DHT22;11620;50.050;8.690;2023-10-09T08:42:34;14.40;99.90
22908;DHT22;11620;50.050;8.690;2023-10-09T08:45:22;14.60;99.90
22908;DHT22;11620;50.050;8.690;2023-10-09T08:48:14;14.40;99.90
22908;DHT22;11620;50.050;8.690;2023-10-09T08:51:04;14.30;99.90
22908;DHT22;11620;50.050;8.690;2023-10-09T08:53:53;14.40;99.90
22908;DHT22;11620;50.050;8.690;2023-10-09T08:56:39;14.40;99.90
22908;DHT22;11620;50.050;8.690;2023-10-09T08:59:45;14.40;99.90
22908;DHT22;11620;50.050;8.690;2023-10-09T09:02:11;14.70;99.90
22908;DHT22;11620;50.050;8.690;2023-10-09T09:04:41;14.60;99.90
22908;DHT22;11620;50.050;8.690;2023-10-09T09:07:29;14.60;99.90
22908;DHT22;11620;50.050;8.690;2023-10-09T09:10:27;14.60;99.90
22908;DHT22;11620;50.050;8.690;2023-10-09T09:13:21;14.70;99.90
22908;DHT22;11620;50.050;8.690;2023-10-09T09:16:14;14.60;99.90
22908;DHT22;11620;50.050;8.690;2023-10-09T09:19:06;14.60;99.90
22908;DHT22;11620;50.050;8.690;2023-10-09T09:21:58;14.80;99.90
22908;DHT22;11620;50.050;8.690;2023-10-09T09:24:59;14.70;99.90
22908;DHT22;11620;50.050;8.690;2023-10-09T09:27:49;14.70;99.90
22908;DHT22;11620;50.050;8.690;2023-10-09T09:30:39;14.70;99.90
22908;DHT22;11620;50.050;8.690;2023-10-09T09:33:27;14.60;99.90
22908;DHT22;11620;50.050;8.690;2023-10-09T09:36:25;14.70;99.90
22908;DHT22;11620;50.050;8.690;2023-10-09T09:39:15;14.80;99.90
22908;DHT22;11620;50.050;8.690;2023-10-09T09:42:05;14.70;99.90
22908;DHT22;11620;50.050;8.690;2023-10-09T09:45:01;14.60;99.90
22908;DHT22;11620;50.050;8.690;2023-10-09T09:47:48;14.70;99.90
22908;DHT22;11620;50.050;8.690;2023-10-09T09:50:40;14.70;99.90
22908;DHT22;11620;50.050;8.690;2023-10-09T09:53:31;14.70;99.90
22908;DHT22;11620;50.050;8.690;2023-10-09T09:56:25;14.70;99.90
22908;DHT22;11620;50.050;8.690;2023-10-09T09:59:13;14.80;99.90
22908;DHT22;11620;50.050;8.690;2023-10-09T10:02:10;14.90;99.90
22908;DHT22;11620;50.050;8.690;2023-10-09T10:04:59;14.90;99.90
22908;DHT22;11620;50.050;8.690;2023-10-09T10:07:49;15.00;99.90
22908;DHT22;11620;50.050;8.690;2023-10-09T10:10:42;15.00;99.90
22908;DHT22;11620;50.050;8.690;2023-10-09T10:17:05;15.20;99.90
22908;DHT22;11620;50.050;8.690;2023-10-09T10:20:08;15.20;99.90
22908;DHT22;11620;50.050;8.690;2023-10-09T10:23:19;15.20;99.90
22908;DHT22;11620;50.050;8.690;2023-10-09T10:26:17;15.30;99.90
22908;DHT22;11620;50.050;8.690;2023-10-09T10:32:08;15.20;99.90
22908;DHT22;11620;50.050;8.690;2023-10-09T10:34:56;15.10;99.90
22908;DHT22;11620;50.050;8.690;2023-10-09T10:37:43;15.10;99.90
22908;DHT22;11620;50.050;8.690;2023-10-09T10:40:46;15.20;99.90
22908;DHT22;11620;50.050;8.690;2023-10-09T10:43:32;15.50;99.90
22908;DHT22;11620;50.050;8.690;2023-10-09T10:46:33;15.40;99.90
22908;DHT22;11620;50.050;8.690;2023-10-09T10:49:29;15.40;99.90
22908;DHT22;11620;50.050;8.690;2023-10-09T10:52:27;15.50;99.90
22908;DHT22;11620;50.050;8.690;2023-10-09T10:55:27;15.40;99.90
22908;DHT22;11620;50.050;8.690;2023-10-09T10:58:17;15.40;99.90
22908;DHT22;11620;50.050;8.690;2023-10-09T11:01:21;15.60;99.90
22908;DHT22;11620;50.050;8.690;2023-10-09T11:04:12;15.60;99.90
22908;DHT22;11620;50.050;8.690;2023-10-09T11:06:59;15.80;99.90
22908;DHT22;11620;50.050;8.690;2023-10-09T11:09:57;16.20;99.90
22908;DHT22;11620;50.050;8.690;2023-10-09T11:12:50;16.40;99.90
22908;DHT22;11620;50.050;8.690;2023-10-09T11:15:39;16.70;99.90
22908;DHT22;11620;50.050;8.690;2023-10-09T11:18:39;16.80;99.90
22908;DHT22;11620;50.050;8.690;2023-10-09T11:21:29;17.20;99.90
22908;DHT22;11620;50.050;8.690;2023-10-09T11:24:18;17.40;99.90
22908;DHT22;11620;50.050;8.690;2023-10-09T11:27:10;17.40;99.90
22908;DHT22;11620;50.050;8.690;2023-10-09T11:30:05;17.80;99.90
22908;DHT22;11620;50.050;8.690;2023-10-09T11:33:05;17.90;99.90
22908;DHT22;11620;50.050;8.690;2023-10-09T11:35:56;17.80;99.90
22908;DHT22;11620;50.050;8.690;2023-10-09T11:38:46;17.90;99.90
22908;DHT22;11620;50.050;8.690;2023-10-09T11:41:40;18.10;99.90
22908;DHT22;11620;50.050;8.690;2023-10-09T11:44:40;18.00;99.90
22908;DHT22;11620;50.050;8.690;2023-10-09T11:47:34;17.90;99.90
22908;DHT22;11620;50.050;8.690;2023-10-09T11:50:20;18.00;99.90
22908;DHT22;11620;50.050;8.690;2023-10-09T11:53:18;17.90;99.90
22908;DHT22;11620;50.050;8.690;2023-10-09T11:56:10;17.70;99.90
22908;DHT22;11620;50.050;8.690;2023-10-09T11:59:00;17.50;99.90
22908;DHT22;11620;50.050;8.690;2023-10-09T12:01:50;17.70;99.90
22908;DHT22;11620;50.050;8.690;2023-10-09T12:04:39;18.00;99.90
22908;DHT22;11620;50.050;8.690;2023-10-09T12:07:28;18.10;99.90
22908;DHT22;11620;50.050;8.690;2023-10-09T12:10:15;18.20;99.90
22908;DHT22;11620;50.050;8.690;2023-10-09T12:13:06;18.50;99.90
22908;DHT22;11620;50.050;8.690;2023-10-09T12:15:53;18.30;99.90
22908;DHT22;11620;50.050;8.690;2023-10-09T12:18:39;18.60;99.90
22908;DHT22;11620;50.050;8.690;2023-10-09T12:21:26;18.70;99.90
22908;DHT22;11620;50.050;8.690;2023-10-09T12:24:14;18.60;99.90
22908;DHT22;11620;50.050;8.690;2023-10-09T12:27:05;18.50;99.90
22908;DHT22;11620;50.050;8.690;2023-10-09T12:29:57;18.50;99.90
22908;DHT22;11620;50.050;8.690;2023-10-09T12:32:44;18.40;99.90
22908;DHT22;11620;50.050;8.690;2023-10-09T12:35:31;18.30;99.90
22908;DHT22;11620;50.050;8.690;2023-10-09T12:38:21;18.40;99.90
22908;DHT22;11620;50.050;8.690;2023-10-09T12:41:08;18.30;99.90
22908;DHT22;11620;50.050;8.690;2023-10-09T12:44:06;18.30;99.90
22908;DHT22;11620;50.050;8.690;2023-10-09T12:47:00;18.30;99.90
22908;DHT22;11620;50.050;8.690;2023-10-09T12:49:50;18.30;99.90
22908;DHT22;11620;50.050;8.690;2023-10-09T12:52:40;18.30;99.90
22908;DHT22;11620;50.050;8.690;2023-10-09T12:55:26;18.30;99.90
22908;DHT22;11620;50.050;8.690;2023-10-09T12:58:17;18.30;99.90
22908;DHT22;11620;50.050;8.690;2023-10-09T13:01:04;18.30;99.90
22908;DHT22;11620;50.050;8.690;2023-10-09T13:04:00;18.30;99.90
22908;DHT22;11620;50.050;8.690;2023-10-09T13:06:48;18.40;99.90
22908;DHT22;11620;50.050;8.690;2023-10-09T13:09:37;18.50;99.90
22908;DHT22;11620;50.050;8.690;2023-10-09T13:12:29;18.40;99.90
22908;DHT22;11620;50.050;8.690;2023-10-09T13:15:16;18.50;99.90
22908;DHT22;11620;50.050;8.690;2023-10-09T13:18:02;18.50;99.90
22908;DHT22;11620;50.050;8.690;2023-10-09T13:20:53;18.60;99.90
22908;DHT22;11620;50.050;8.690;2023-10-09T13:23:39;18.60;99.90
22908;DHT22;11620;50.050;8.690;2023-10-09T13:26:25;18.60;99.90
22908;DHT22;11620;50.050;8.690;2023-10-09T13:29:15;18.70;99.90
22908;DHT22;11620;50.050;8.690;2023-10-09T13:32:09;18.70;99.90
22908;DHT22;11620;50.050;8.690;2023-10-09T13:35:02;18.80;99.90
22908;DHT22;11620;50.050;8.690;2023-10-09T13:37:29;18.90;99.90
22908;DHT22;11620;50.050;8.690;2023-10-09T13:39:57;18.70;99.90
22908;DHT22;11620;50.050;8.690;2023-10-09T13:42:25;18.70;99.90
22908;DHT22;11620;50.050;8.690;2023-10-09T13:44:52;18.70;99.90
22908;DHT22;11620;50.050;8.690;2023-10-09T13:47:19;18.70;99.90
22908;DHT22;11620;50.050;8.690;2023-10-09T13:49:49;18.60;99.90
22908;DHT22;11620;50.050;8.690;2023-10-09T13:52:16;18.60;99.90
22908;DHT22;11620;50.050;8.690;2023-10-09T13:54:47;18.70;99.90
22908;DHT22;11620;50.050;8.690;2023-10-09T13:57:15;18.70;99.90
22908;DHT22;11620;50.050;8.690;2023-10-09T13:59:42;18.50;99.90
22908;DHT22;11620;50.050;8.690;2023-10-09T14:02:15;18.50;99.90
22908;DHT22;11620;50.050;8.690;2023-10-09T14:04:47;18.60;99.90
22908;DHT22;11620;50.050;8.690;2023-10-09T14:07:13;18.50;99.90
22908;DHT22;11620;50.050;8.690;2023-10-09T14:09:43;18.70;99.90
22908;DHT22;11620;50.050;8.690;2023-10-09T14:12:09;18.70;99.90
22908;DHT22;11620;50.050;8.690;2023-10-09T14:14:38;18.70;99.90
22908;DHT22;11620;50.050;8.690;2023-10-09T14:17:07;18.70;99.90
22908;DHT22;11620;50.050;8.690;2023-10-09T14:19:43;18.70;99.90
22908;DHT22;11620;50.050;8.690;2023-10-09T14:22:18;18.70;99.90
22908;DHT22;11620;50.050;8.690;2023-10-09T14:24:44;18.80;99.90
22908;DHT22;11620;50.050;8.690;2023-10-09T14:27:14;18.90;99.90
22908;DHT22;11620;50.050;8.690;2023-10-09T14:29:47;18.90;99.90
22908;DHT22;11620;50.050;8.690;2023-10-09T14:32:14;19.00;99.90
22908;DHT22;11620;50.050;8.690;2023-10-09T14:34:44;19.00;99.90
22908;DHT22;11620;50.050;8.690;2023-10-09T14:37:19;19.10;99.90
22908;DHT22;11620;50.050;8.690;2023-10-09T14:39:45;19.20;99.90
22908;DHT22;11620;50.050;8.690;2023-10-09T14:42:15;19.10;99.90
22908;DHT22;11620;50.050;8.690;2023-10-09T14:44:41;19.10;99.90
22908;DHT22;11620;50.050;8.690;2023-10-09T14:47:11;19.10;99.90
22908;DHT22;11620;50.050;8.690;2023-10-09T14:49:37;19.10;99.90
22908;DHT22;11620;50.050;8.690;2023-10-09T14:52:10;18.90;99.90
22908;DHT22;11620;50.050;8.690;2023-10-09T14:54:36;19.00;99.90
22908;DHT22;11620;50.050;8.690;2023-10-09T14:57:04;19.10;99.90
22908;DHT22;11620;50.050;8.690;2023-10-09T14:59:33;19.20;99.90
22908;DHT22;11620;50.050;8.690;2023-10-09T15:01:59;19.30;99.90
22908;DHT22;11620;50.050;8.690;2023-10-09T15:04:44;19.30;99.90
22908;DHT22;11620;50.050;8.690;2023-10-09T15:07:10;19.40;99.90
22908;DHT22;11620;50.050;8.690;2023-10-09T15:09:38;19.40;99.90
22908;DHT22;11620;50.050;8.690;2023-10-09T15:12:05;19.40;99.90
22908;DHT22;11620;50.050;8.690;2023-10-09T15:14:32;19.40;99.90
22908;DHT22;11620;50.050;8.690;2023-10-09T15:17:00;19.40;99.90
22908;DHT22;11620;50.050;8.690;2023-10-09T15:19:26;19.40;99.90
22908;DHT22;11620;50.050;8.690;2023-10-09T15:21:59;19.40;99.90
22908;DHT22;11620;50.050;8.690;2023-10-09T15:24:25;19.30;99.90
22908;DHT22;11620;50.050;8.690;2023-10-09T15:26:54;19.30;99.90
22908;DHT22;11620;50.050;8.690;2023-10-09T15:29:24;19.40;99.90
22908;DHT22;11620;50.050;8.690;2023-10-09T15:32:01;19.30;99.90
22908;DHT22;11620;50.050;8.690;2023-10-09T15:34:58;19.40;99.90
22908;DHT22;11620;50.050;8.690;2023-10-09T15:37:44;19.40;99.90
22908;DHT22;11620;50.050;8.690;2023-10-09T15:40:33;19.40;99.90
22908;DHT22;11620;50.050;8.690;2023-10-09T15:43:22;19.40;99.90
22908;DHT22;11620;50.050;8.690;2023-10-09T15:46:13;19.50;99.90
22908;DHT22;11620;50.050;8.690;2023-10-09T15:49:03;19.30;99.90
22908;DHT22;11620;50.050;8.690;2023-10-09T15:51:49;19.20;99.90
22908;DHT22;11620;50.050;8.690;2023-10-09T15:54:35;19.10;99.90
22908;DHT22;11620;50.050;8.690;2023-10-09T15:57:23;19.10;99.90
22908;DHT22;11620;50.050;8.690;2023-10-09T16:00:09;19.20;99.90
22908;DHT22;11620;50.050;8.690;2023-10-09T16:03:05;19.20;99.90
22908;DHT22;11620;50.050;8.690;2023-10-09T16:05:57;19.10;99.90
22908;DHT22;11620;50.050;8.690;2023-10-09T16:08:48;19.10;99.90
22908;DHT22;11620;50.050;8.690;2023-10-09T16:11:36;18.80;99.90
22908;DHT22;11620;50.050;8.690;2023-10-09T16:14:22;18.70;99.90
22908;DHT22;11620;50.050;8.690;2023-10-09T16:17:42;18.80;99.90
22908;DHT22;11620;50.050;8.690;2023-10-09T16:20:29;18.80;99.90
22908;DHT22;11620;50.050;8.690;2023-10-09T16:23:17;18.80;99.90
22908;DHT22;11620;50.050;8.690;2023-10-09T16:26:06;18.80;99.90
22908;DHT22;11620;50.050;8.690;2023-10-09T16:28:53;18.70;99.90
22908;DHT22;11620;50.050;8.690;2023-10-09T16:31:39;18.50;99.90
22908;DHT22;11620;50.050;8.690;2023-10-09T16:34:26;18.50;99.90
22908;DHT22;11620;50.050;8.690;2023-10-09T16:37:13;18.50;99.90
22908;DHT22;11620;50.050;8.690;2023-10-09T16:40:00;18.50;99.90
22908;DHT22;11620;50.050;8.690;2023-10-09T16:42:52;18.70;99.90
22908;DHT22;11620;50.050;8.690;2023-10-09T16:45:40;18.60;99.90
22908;DHT22;11620;50.050;8.690;2023-10-09T16:48:29;18.50;99.90
22908;DHT22;11620;50.050;8.690;2023-10-09T16:51:16;18.50;99.90
22908;DHT22;11620;50.050;8.690;2023-10-09T16:54:04;18.40;99.90
22908;DHT22;11620;50.050;8.690;2023-10-09T16:56:50;18.30;99.90
22908;DHT22;11620;50.050;8.690;2023-10-09T16:59:37;18.20;99.90
22908;DHT22;11620;50.050;8.690;2023-10-09T17:02:23;18.30;99.90
22908;DHT22;11620;50.050;8.690;2023-10-09T17:05:09;18.20;99.90
22908;DHT22;11620;50.050;8.690;2023-10-09T17:08:04;18.20;99.90
22908;DHT22;11620;50.050;8.690;2023-10-09T17:10:57;18.10;99.90
22908;DHT22;11620;50.050;8.690;2023-10-09T17:13:43;18.00;99.90
22908;DHT22;11620;50.050;8.690;2023-10-09T17:16:35;17.90;99.90
22908;DHT22;11620;50.050;8.690;2023-10-09T17:19:26;17.90;99.90
22908;DHT22;11620;50.050;8.690;2023-10-09T17:22:13;17.90;99.90
22908;DHT22;11620;50.050;8.690;2023-10-09T17:24:59;17.90;99.90
22908;DHT22;11620;50.050;8.690;2023-10-09T17:27:46;17.90;99.90
22908;DHT22;11620;50.050;8.690;2023-10-09T17:30:32;17.80;99.90
22908;DHT22;11620;50.050;8.690;2023-10-09T17:33:21;17.70;99.90
22908;DHT22;11620;50.050;8.690;2023-10-09T17:36:08;17.70;99.90
22908;DHT22;11620;50.050;8.690;2023-10-09T17:38:57;17.60;99.90
22908;DHT22;11620;50.050;8.690;2023-10-09T17:41:48;17.70;99.90
22908;DHT22;11620;50.050;8.690;2023-10-09T17:44:34;17.70;99.90
22908;DHT22;11620;50.050;8.690;2023-10-09T17:47:21;17.60;99.90
22908;DHT22;11620;50.050;8.690;2023-10-09T17:50:07;17.60;99.90